sensor_id;sensor_type;location;lat;lon;timestamp;temperature;humidity
54202;DHT22;40108;53.152;5.844;2023-03-14T00:01:24;9.40;85.90
54202;DHT22;40108;53.152;5.844;2023-03-14T00:03:50;9.40;85.90
54202;DHT22;40108;53.152;5.844;2023-03-14T00:06:16;9.40;85.90
54202;DHT22;40108;53.152;5.844;2023-03-14T00:08:43;9.50;85.70
54202;DHT22;40108;53.152;5.844;2023-03-14T00:11:20;9.50;85.60
54202;DHT22;40108;53.152;5.844;2023-03-14T00:13:52;9.60;85.50
54202;DHT22;40108;53.152;5.844;2023-03-14T00:16:18;9.60;85.40
54202;DHT22;40108;53.152;5.844;2023-03-14T00:18:44;9.60;85.40
54202;DHT22;40108;53.152;5.844;2023-03-14T00:21:10;9.60;85.40
54202;DHT22;40108;53.152;5.844;2023-03-14T00:23:38;9.60;85.30
54202;DHT22;40108;53.152;5.844;2023-03-14T00:26:06;9.60;85.40
54202;DHT22;40108;53.152;5.844;2023-03-14T00:28:33;9.50;85.60
54202;DHT22;40108;53.152;5.844;2023-03-14T00:31:01;9.40;85.80
54202;DHT22;40108;53.152;5.844;2023-03-14T00:33:27;9.30;85.90
54202;DHT22;40108;53.152;5.844;2023-03-14T00:35:57;9.20;86.10
54202;DHT22;40108;53.152;5.844;2023-03-14T00:38:23;9.20;86.40
54202;DHT22;40108;53.152;5.844;2023-03-14T00:40:52;9.10;86.60
54202;DHT22;40108;53.152;5.844;2023-03-14T00:43:19;9.00;86.80
54202;DHT22;40108;53.152;5.844;2023-03-14T00:45:47;8.90;86.90
54202;DHT22;40108;53.152;5.844;2023-03-14T00:48:13;8.90;87.10
54202;DHT22;40108;53.152;5.844;2023-03-14T00:50:40;8.90;87.30
54202;DHT22;40108;53.152;5.844;2023-03-14T00:53:06;8.90;87.50
54202;DHT22;40108;53.152;5.844;2023-03-14T00:55:32;9.00;87.50
54202;DHT22;40108;53.152;5.844;2023-03-14T00:58:01;9.00;87.50
54202;DHT22;40108;53.152;5.844;2023-03-14T01:00:26;9.00;87.50
54202;DHT22;40108;53.152;5.844;2023-03-14T01:02:52;9.00;87.70
54202;DHT22;40108;53.152;5.844;2023-03-14T01:05:18;9.00;87.90
54202;DHT22;40108;53.152;5.844;2023-03-14T01:07:43;9.00;88.00
54202;DHT22;40108;53.152;5.844;2023-03-14T01:10:10;9.00;88.10
54202;DHT22;40108;53.152;5.844;2023-03-14T01:12:36;9.10;88.30
54202;DHT22;40108;53.152;5.844;2023-03-14T01:15:01;9.20;88.30
54202;DHT22;40108;53.152;5.844;2023-03-14T01:17:27;9.10;88.40
54202;DHT22;40108;53.152;5.844;2023-03-14T01:19:53;9.20;88.40
54202;DHT22;40108;53.152;5.844;2023-03-14T01:22:19;9.20;88.50
54202;DHT22;40108;53.152;5.844;2023-03-14T01:24:46;9.20;88.50
54202;DHT22;40108;53.152;5.844;2023-03-14T01:27:12;9.30;88.50
54202;DHT22;40108;53.152;5.844;2023-03-14T01:29:38;9.30;88.60
54202;DHT22;40108;53.152;5.844;2023-03-14T01:32:04;9.30;88.80
54202;DHT22;40108;53.152;5.844;2023-03-14T01:34:30;9.40;88.90
54202;DHT22;40108;53.152;5.844;2023-03-14T01:36:55;9.40;89.00
54202;DHT22;40108;53.152;5.844;2023-03-14T01:39:21;9.40;89.10
54202;DHT22;40108;53.152;5.844;2023-03-14T01:41:47;9.40;89.30
54202;DHT22;40108;53.152;5.844;2023-03-14T01:44:13;9.40;89.40
54202;DHT22;40108;53.152;5.844;2023-03-14T01:49:19;9.40;90.00
54202;DHT22;40108;53.152;5.844;2023-03-14T01:52:07;9.30;90.30
54202;DHT22;40108;53.152;5.844;2023-03-14T01:54:42;9.20;90.50
54202;DHT22;40108;53.152;5.844;2023-03-14T01:57:33;9.20;90.50
54202;DHT22;40108;53.152;5.844;2023-03-14T02:00:07;9.20;90.70
54202;DHT22;40108;53.152;5.844;2023-03-14T02:02:38;9.20;90.70
54202;DHT22;40108;53.152;5.844;2023-03-14T02:05:05;9.20;90.80
54202;DHT22;40108;53.152;5.844;2023-03-14T02:07:52;9.20;90.90
54202;DHT22;40108;53.152;5.844;2023-03-14T02:10:21;9.20;91.10
54202;DHT22;40108;53.152;5.844;2023-03-14T02:12:48;9.10;91.20
54202;DHT22;40108;53.152;5.844;2023-03-14T02:15:15;9.10;91.30
54202;DHT22;40108;53.152;5.844;2023-03-14T02:17:42;9.10;91.40
54202;DHT22;40108;53.152;5.844;2023-03-14T02:22:50;9.10;91.70
54202;DHT22;40108;53.152;5.844;2023-03-14T02:27:55;9.10;91.80
54202;DHT22;40108;53.152;5.844;2023-03-14T02:30:26;9.10;91.90
54202;DHT22;40108;53.152;5.844;2023-03-14T02:32:58;9.10;92.00
54202;DHT22;40108;53.152;5.844;2023-03-14T02:35:29;9.10;91.90
54202;DHT22;40108;53.152;5.844;2023-03-14T02:38:03;9.10;92.00
54202;DHT22;40108;53.152;5.844;2023-03-14T02:40:30;9.10;92.10
54202;DHT22;40108;53.152;5.844;2023-03-14T02:42:56;9.10;92.10
54202;DHT22;40108;53.152;5.844;2023-03-14T02:47:52;9.10;92.40
54202;DHT22;40108;53.152;5.844;2023-03-14T02:50:22;9.00;92.60
54202;DHT22;40108;53.152;5.844;2023-03-14T02:52:50;9.00;92.80
54202;DHT22;40108;53.152;5.844;2023-03-14T02:55:23;9.00;93.00
54202;DHT22;40108;53.152;5.844;2023-03-14T02:57:50;8.90;93.10
54202;DHT22;40108;53.152;5.844;2023-03-14T03:00:16;8.90;93.20
54202;DHT22;40108;53.152;5.844;2023-03-14T03:02:42;8.90;93.20
54202;DHT22;40108;53.152;5.844;2023-03-14T03:05:07;8.90;93.30
54202;DHT22;40108;53.152;5.844;2023-03-14T03:07:33;8.90;93.30
54202;DHT22;40108;53.152;5.844;2023-03-14T03:09:59;8.90;93.40
54202;DHT22;40108;53.152;5.844;2023-03-14T03:12:25;8.90;93.50
54202;DHT22;40108;53.152;5.844;2023-03-14T03:14:50;8.90;93.50
54202;DHT22;40108;53.152;5.844;2023-03-14T03:17:18;8.90;93.60
54202;DHT22;40108;53.152;5.844;2023-03-14T03:19:44;8.80;93.60
54202;DHT22;40108;53.152;5.844;2023-03-14T03:22:10;8.90;93.60
54202;DHT22;40108;53.152;5.844;2023-03-14T03:24:36;8.80;93.60
54202;DHT22;40108;53.152;5.844;2023-03-14T03:27:01;8.90;93.60
54202;DHT22;40108;53.152;5.844;2023-03-14T03:29:27;8.90;93.60
54202;DHT22;40108;53.152;5.844;2023-03-14T03:31:53;8.80;93.60
54202;DHT22;40108;53.152;5.844;2023-03-14T03:34:19;8.80;93.60
54202;DHT22;40108;53.152;5.844;2023-03-14T03:36:44;8.80;93.60
54202;DHT22;40108;53.152;5.844;2023-03-14T03:39:10;8.80;93.70
54202;DHT22;40108;53.152;5.844;2023-03-14T03:41:36;8.80;93.60
54202;DHT22;40108;53.152;5.844;2023-03-14T03:44:01;8.80;93.70
54202;DHT22;40108;53.152;5.844;2023-03-14T03:46:27;8.80;93.70
54202;DHT22;40108;53.152;5.844;2023-03-14T03:48:58;8.80;93.60
54202;DHT22;40108;53.152;5.844;2023-03-14T03:51:24;8.80;93.60
54202;DHT22;40108;53.152;5.844;2023-03-14T03:53:50;8.80;93.60
54202;DHT22;40108;53.152;5.844;2023-03-14T03:56:16;8.80;93.60
54202;DHT22;40108;53.152;5.844;2023-03-14T03:58:42;8.80;93.50
54202;DHT22;40108;53.152;5.844;2023-03-14T04:01:09;8.80;93.50
54202;DHT22;40108;53.152;5.844;2023-03-14T04:03:36;8.80;93.50
54202;DHT22;40108;53.152;5.844;2023-03-14T04:06:13;8.80;93.50
54202;DHT22;40108;53.152;5.844;2023-03-14T04:08:39;8.80;93.40
54202;DHT22;40108;53.152;5.844;2023-03-14T04:11:07;8.80;93.40
54202;DHT22;40108;53.152;5.844;2023-03-14T04:13:33;8.80;93.40
54202;DHT22;40108;53.152;5.844;2023-03-14T04:15:58;8.80;93.40
54202;DHT22;40108;53.152;5.844;2023-03-14T04:18:24;8.80;93.30
54202;DHT22;40108;53.152;5.844;2023-03-14T04:20:54;8.90;93.30
54202;DHT22;40108;53.152;5.844;2023-03-14T04:23:21;8.80;93.30
54202;DHT22;40108;53.152;5.844;2023-03-14T04:25:51;8.80;93.40
54202;DHT22;40108;53.152;5.844;2023-03-14T04:28:17;8.80;93.50
54202;DHT22;40108;53.152;5.844;2023-03-14T04:30:43;8.80;93.60
54202;DHT22;40108;53.152;5.844;2023-03-14T04:33:09;8.80;93.70
54202;DHT22;40108;53.152;5.844;2023-03-14T04:35:35;8.80;93.90
54202;DHT22;40108;53.152;5.844;2023-03-14T04:38:01;8.70;94.00
54202;DHT22;40108;53.152;5.844;2023-03-14T04:40:27;8.70;94.20
54202;DHT22;40108;53.152;5.844;2023-03-14T04:42:52;8.70;94.30
54202;DHT22;40108;53.152;5.844;2023-03-14T04:45:18;8.70;94.50
54202;DHT22;40108;53.152;5.844;2023-03-14T04:47:44;8.60;94.60
54202;DHT22;40108;53.152;5.844;2023-03-14T04:50:10;8.60;94.70
54202;DHT22;40108;53.152;5.844;2023-03-14T04:52:36;8.60;94.90
54202;DHT22;40108;53.152;5.844;2023-03-14T04:55:02;8.60;95.00
54202;DHT22;40108;53.152;5.844;2023-03-14T04:57:28;8.60;95.10
54202;DHT22;40108;53.152;5.844;2023-03-14T04:59:53;8.60;95.20
54202;DHT22;40108;53.152;5.844;2023-03-14T05:02:19;8.50;95.30
54202;DHT22;40108;53.152;5.844;2023-03-14T05:04:44;8.60;95.40
54202;DHT22;40108;53.152;5.844;2023-03-14T05:07:10;8.60;95.50
54202;DHT22;40108;53.152;5.844;2023-03-14T05:09:36;8.60;95.70
54202;DHT22;40108;53.152;5.844;2023-03-14T05:12:01;8.60;95.80
54202;DHT22;40108;53.152;5.844;2023-03-14T05:14:27;8.60;95.90
54202;DHT22;40108;53.152;5.844;2023-03-14T05:16:53;8.60;95.90
54202;DHT22;40108;53.152;5.844;2023-03-14T05:19:19;8.60;95.90
54202;DHT22;40108;53.152;5.844;2023-03-14T05:21:44;8.60;95.90
54202;DHT22;40108;53.152;5.844;2023-03-14T05:24:10;8.60;96.00
54202;DHT22;40108;53.152;5.844;2023-03-14T05:26:35;8.60;96.00
54202;DHT22;40108;53.152;5.844;2023-03-14T05:29:01;8.60;96.00
54202;DHT22;40108;53.152;5.844;2023-03-14T05:31:27;8.50;96.00
54202;DHT22;40108;53.152;5.844;2023-03-14T05:33:53;8.60;96.00
54202;DHT22;40108;53.152;5.844;2023-03-14T05:36:18;8.60;96.10
54202;DHT22;40108;53.152;5.844;2023-03-14T05:38:44;8.60;96.10
54202;DHT22;40108;53.152;5.844;2023-03-14T05:41:10;8.50;96.10
54202;DHT22;40108;53.152;5.844;2023-03-14T05:43:35;8.50;96.10
54202;DHT22;40108;53.152;5.844;2023-03-14T05:46:01;8.60;96.20
54202;DHT22;40108;53.152;5.844;2023-03-14T05:48:27;8.50;96.20
54202;DHT22;40108;53.152;5.844;2023-03-14T05:50:56;8.50;96.20
54202;DHT22;40108;53.152;5.844;2023-03-14T05:53:23;8.50;96.20
54202;DHT22;40108;53.152;5.844;2023-03-14T05:55:52;8.50;96.20
54202;DHT22;40108;53.152;5.844;2023-03-14T05:58:18;8.40;96.00
54202;DHT22;40108;53.152;5.844;2023-03-14T06:00:44;8.20;95.50
54202;DHT22;40108;53.152;5.844;2023-03-14T06:03:09;7.90;95.30
54202;DHT22;40108;53.152;5.844;2023-03-14T06:05:35;7.70;95.20
54202;DHT22;40108;53.152;5.844;2023-03-14T06:08:01;7.50;94.60
54202;DHT22;40108;53.152;5.844;2023-03-14T06:10:27;7.20;94.40
54202;DHT22;40108;53.152;5.844;2023-03-14T06:12:52;7.00;94.50
54202;DHT22;40108;53.152;5.844;2023-03-14T06:15:19;6.80;94.40
54202;DHT22;40108;53.152;5.844;2023-03-14T06:17:44;6.60;94.40
54202;DHT22;40108;53.152;5.844;2023-03-14T06:20:10;6.40;94.30
54202;DHT22;40108;53.152;5.844;2023-03-14T06:22:36;6.20;94.20
54202;DHT22;40108;53.152;5.844;2023-03-14T06:25:04;6.10;94.10
54202;DHT22;40108;53.152;5.844;2023-03-14T06:27:30;5.90;94.20
54202;DHT22;40108;53.152;5.844;2023-03-14T06:29:55;5.70;94.10
54202;DHT22;40108;53.152;5.844;2023-03-14T06:32:21;5.60;94.00
54202;DHT22;40108;53.152;5.844;2023-03-14T06:34:47;5.40;93.80
54202;DHT22;40108;53.152;5.844;2023-03-14T06:37:13;5.30;93.70
54202;DHT22;40108;53.152;5.844;2023-03-14T06:39:38;5.20;93.90
54202;DHT22;40108;53.152;5.844;2023-03-14T06:42:05;5.10;94.00
54202;DHT22;40108;53.152;5.844;2023-03-14T06:44:30;5.00;94.00
54202;DHT22;40108;53.152;5.844;2023-03-14T06:46:56;4.90;94.00
54202;DHT22;40108;53.152;5.844;2023-03-14T06:49:22;4.90;94.00
54202;DHT22;40108;53.152;5.844;2023-03-14T06:51:48;4.80;93.90
54202;DHT22;40108;53.152;5.844;2023-03-14T06:54:14;4.70;93.90
54202;DHT22;40108;53.152;5.844;2023-03-14T06:56:39;4.70;93.90
54202;DHT22;40108;53.152;5.844;2023-03-14T06:59:05;4.70;93.80
54202;DHT22;40108;53.152;5.844;2023-03-14T07:01:31;4.70;93.90
54202;DHT22;40108;53.152;5.844;2023-03-14T07:03:58;4.70;94.00
54202;DHT22;40108;53.152;5.844;2023-03-14T07:06:24;4.70;94.40
54202;DHT22;40108;53.152;5.844;2023-03-14T07:08:50;4.70;94.50
54202;DHT22;40108;53.152;5.844;2023-03-14T07:11:16;4.80;94.30
54202;DHT22;40108;53.152;5.844;2023-03-14T07:13:42;4.70;94.10
54202;DHT22;40108;53.152;5.844;2023-03-14T07:16:08;4.70;93.90
54202;DHT22;40108;53.152;5.844;2023-03-14T07:18:34;4.60;93.70
54202;DHT22;40108;53.152;5.844;2023-03-14T07:21:00;4.60;93.60
54202;DHT22;40108;53.152;5.844;2023-03-14T07:23:25;4.60;93.50
54202;DHT22;40108;53.152;5.844;2023-03-14T07:25:51;4.60;93.60
54202;DHT22;40108;53.152;5.844;2023-03-14T07:28:19;4.60;93.80
54202;DHT22;40108;53.152;5.844;2023-03-14T07:30:46;4.60;93.80
54202;DHT22;40108;53.152;5.844;2023-03-14T07:33:13;4.60;93.80
54202;DHT22;40108;53.152;5.844;2023-03-14T07:35:38;4.70;93.90
54202;DHT22;40108;53.152;5.844;2023-03-14T07:38:04;4.70;93.80
54202;DHT22;40108;53.152;5.844;2023-03-14T07:40:30;4.70;93.50
54202;DHT22;40108;53.152;5.844;2023-03-14T07:42:55;4.70;93.50
54202;DHT22;40108;53.152;5.844;2023-03-14T07:45:21;4.70;93.30
54202;DHT22;40108;53.152;5.844;2023-03-14T07:47:47;4.70;93.10
54202;DHT22;40108;53.152;5.844;2023-03-14T07:50:12;4.70;92.90
54202;DHT22;40108;53.152;5.844;2023-03-14T07:52:38;4.70;92.80
54202;DHT22;40108;53.152;5.844;2023-03-14T07:55:04;4.80;92.50
54202;DHT22;40108;53.152;5.844;2023-03-14T07:57:30;4.80;92.40
54202;DHT22;40108;53.152;5.844;2023-03-14T07:59:55;4.90;92.30
54202;DHT22;40108;53.152;5.844;2023-03-14T08:02:21;4.90;92.00
54202;DHT22;40108;53.152;5.844;2023-03-14T08:04:49;5.00;92.00
54202;DHT22;40108;53.152;5.844;2023-03-14T08:07:15;5.00;91.90
54202;DHT22;40108;53.152;5.844;2023-03-14T08:09:42;5.10;92.00
54202;DHT22;40108;53.152;5.844;2023-03-14T08:12:07;5.10;91.90
54202;DHT22;40108;53.152;5.844;2023-03-14T08:14:34;5.10;92.00
54202;DHT22;40108;53.152;5.844;2023-03-14T08:16:59;5.20;92.10
54202;DHT22;40108;53.152;5.844;2023-03-14T08:19:25;5.20;91.90
54202;DHT22;40108;53.152;5.844;2023-03-14T08:21:51;5.20;91.90
54202;DHT22;40108;53.152;5.844;2023-03-14T08:24:17;5.20;91.80
54202;DHT22;40108;53.152;5.844;2023-03-14T08:26:43;5.20;91.90
54202;DHT22;40108;53.152;5.844;2023-03-14T08:29:08;5.20;91.70
54202;DHT22;40108;53.152;5.844;2023-03-14T08:31:37;5.40;91.70
54202;DHT22;40108;53.152;5.844;2023-03-14T08:34:03;5.40;91.00
54202;DHT22;40108;53.152;5.844;2023-03-14T08:36:29;5.50;90.40
54202;DHT22;40108;53.152;5.844;2023-03-14T08:38:55;5.70;89.70
54202;DHT22;40108;53.152;5.844;2023-03-14T08:41:20;5.80;89.00
54202;DHT22;40108;53.152;5.844;2023-03-14T08:43:46;6.00;88.50
54202;DHT22;40108;53.152;5.844;2023-03-14T08:46:11;6.00;88.30
54202;DHT22;40108;53.152;5.844;2023-03-14T08:48:37;6.10;88.40
54202;DHT22;40108;53.152;5.844;2023-03-14T08:51:12;6.10;88.20
54202;DHT22;40108;53.152;5.844;2023-03-14T08:53:41;6.10;88.20
54202;DHT22;40108;53.152;5.844;2023-03-14T08:56:07;6.10;88.30
54202;DHT22;40108;53.152;5.844;2023-03-14T08:58:36;6.00;88.00
54202;DHT22;40108;53.152;5.844;2023-03-14T09:01:04;6.00;88.30
54202;DHT22;40108;53.152;5.844;2023-03-14T09:03:30;5.90;88.00
54202;DHT22;40108;53.152;5.844;2023-03-14T09:06:00;5.70;86.70
54202;DHT22;40108;53.152;5.844;2023-03-14T09:08:26;5.60;87.20
54202;DHT22;40108;53.152;5.844;2023-03-14T09:10:52;5.60;86.70
54202;DHT22;40108;53.152;5.844;2023-03-14T09:13:17;5.60;85.50
54202;DHT22;40108;53.152;5.844;2023-03-14T09:15:43;5.60;86.00
54202;DHT22;40108;53.152;5.844;2023-03-14T09:18:09;5.60;85.00
54202;DHT22;40108;53.152;5.844;2023-03-14T09:20:34;5.60;84.10
54202;DHT22;40108;53.152;5.844;2023-03-14T09:23:01;5.70;83.20
54202;DHT22;40108;53.152;5.844;2023-03-14T09:25:26;5.70;83.50
54202;DHT22;40108;53.152;5.844;2023-03-14T09:27:52;5.70;84.00
54202;DHT22;40108;53.152;5.844;2023-03-14T09:30:18;5.70;83.20
54202;DHT22;40108;53.152;5.844;2023-03-14T09:32:44;5.70;83.00
54202;DHT22;40108;53.152;5.844;2023-03-14T09:35:09;5.80;82.60
54202;DHT22;40108;53.152;5.844;2023-03-14T09:37:35;5.90;80.80
54202;DHT22;40108;53.152;5.844;2023-03-14T09:40:01;5.90;79.40
54202;DHT22;40108;53.152;5.844;2023-03-14T09:42:34;6.00;79.70
54202;DHT22;40108;53.152;5.844;2023-03-14T09:45:05;6.10;78.40
54202;DHT22;40108;53.152;5.844;2023-03-14T09:47:33;6.20;76.70
54202;DHT22;40108;53.152;5.844;2023-03-14T09:50:03;6.30;76.40
54202;DHT22;40108;53.152;5.844;2023-03-14T09:52:35;6.50;75.90
54202;DHT22;40108;53.152;5.844;2023-03-14T09:55:27;6.50;76.30
54202;DHT22;40108;53.152;5.844;2023-03-14T09:58:00;6.40;75.20
54202;DHT22;40108;53.152;5.844;2023-03-14T10:00:29;6.40;75.00
54202;DHT22;40108;53.152;5.844;2023-03-14T10:05:41;6.40;74.00
54202;DHT22;40108;53.152;5.844;2023-03-14T10:08:10;6.50;74.50
54202;DHT22;40108;53.152;5.844;2023-03-14T10:10:36;6.70;74.10
54202;DHT22;40108;53.152;5.844;2023-03-14T10:13:18;6.90;71.90
54202;DHT22;40108;53.152;5.844;2023-03-14T10:15:55;7.20;69.60
54202;DHT22;40108;53.152;5.844;2023-03-14T10:18:24;7.40;68.50
54202;DHT22;40108;53.152;5.844;2023-03-14T10:21:06;7.30;67.30
54202;DHT22;40108;53.152;5.844;2023-03-14T10:23:33;7.60;68.30
54202;DHT22;40108;53.152;5.844;2023-03-14T10:26:05;7.80;66.40
54202;DHT22;40108;53.152;5.844;2023-03-14T10:28:37;8.00;65.80
54202;DHT22;40108;53.152;5.844;2023-03-14T10:31:03;8.30;64.90
54202;DHT22;40108;53.152;5.844;2023-03-14T10:33:35;8.20;63.70
54202;DHT22;40108;53.152;5.844;2023-03-14T10:36:21;8.00;65.00
54202;DHT22;40108;53.152;5.844;2023-03-14T10:38:48;8.10;64.50
54202;DHT22;40108;53.152;5.844;2023-03-14T10:41:34;8.70;63.30
54202;DHT22;40108;53.152;5.844;2023-03-14T10:44:00;8.70;60.10
54202;DHT22;40108;53.152;5.844;2023-03-14T10:46:30;8.40;61.50
54202;DHT22;40108;53.152;5.844;2023-03-14T10:48:57;8.00;61.80
54202;DHT22;40108;53.152;5.844;2023-03-14T10:51:28;7.50;60.70
54202;DHT22;40108;53.152;5.844;2023-03-14T10:56:25;7.20;64.10
54202;DHT22;40108;53.152;5.844;2023-03-14T10:58:53;7.70;63.60
54202;DHT22;40108;53.152;5.844;2023-03-14T11:01:41;8.20;60.90
54202;DHT22;40108;53.152;5.844;2023-03-14T11:10:34;9.40;56.40
54202;DHT22;40108;53.152;5.844;2023-03-14T11:12:49;9.80;55.30
54202;DHT22;40108;53.152;5.844;2023-03-14T11:15:25;10.30;54.80
54202;DHT22;40108;53.152;5.844;2023-03-14T11:23:23;10.80;53.70
54202;DHT22;40108;53.152;5.844;2023-03-14T11:25:54;10.90;49.10
54202;DHT22;40108;53.152;5.844;2023-03-14T11:31:16;10.10;52.10
54202;DHT22;40108;53.152;5.844;2023-03-14T11:36:46;10.40;53.10
54202;DHT22;40108;53.152;5.844;2023-03-14T11:39:18;10.70;54.70
54202;DHT22;40108;53.152;5.844;2023-03-14T11:41:52;10.60;52.90
54202;DHT22;40108;53.152;5.844;2023-03-14T11:46:59;9.80;53.80
54202;DHT22;40108;53.152;5.844;2023-03-14T11:49:43;9.30;56.00
54202;DHT22;40108;53.152;5.844;2023-03-14T11:55:04;8.50;59.00
54202;DHT22;40108;53.152;5.844;2023-03-14T11:57:31;8.50;61.10
54202;DHT22;40108;53.152;5.844;2023-03-14T12:08:23;8.70;60.00
54202;DHT22;40108;53.152;5.844;2023-03-14T12:11:04;8.80;58.80
54202;DHT22;40108;53.152;5.844;2023-03-14T12:13:36;8.90;55.80
54202;DHT22;40108;53.152;5.844;2023-03-14T12:16:18;9.10;56.80
54202;DHT22;40108;53.152;5.844;2023-03-14T12:18:45;9.10;56.50
54202;DHT22;40108;53.152;5.844;2023-03-14T12:21:12;9.20;56.50
54202;DHT22;40108;53.152;5.844;2023-03-14T12:23:44;8.90;55.90
54202;DHT22;40108;53.152;5.844;2023-03-14T12:26:20;8.70;56.80
54202;DHT22;40108;53.152;5.844;2023-03-14T12:29:11;8.70;57.30
54202;DHT22;40108;53.152;5.844;2023-03-14T12:34:31;8.70;55.20
54202;DHT22;40108;53.152;5.844;2023-03-14T12:37:28;8.90;54.90
54202;DHT22;40108;53.152;5.844;2023-03-14T12:42:57;8.70;52.60
54202;DHT22;40108;53.152;5.844;2023-03-14T12:45:30;8.40;55.80
54202;DHT22;40108;53.152;5.844;2023-03-14T12:51:04;8.40;58.70
54202;DHT22;40108;53.152;5.844;2023-03-14T12:53:55;8.70;60.30
54202;DHT22;40108;53.152;5.844;2023-03-14T12:56:28;9.00;58.30
54202;DHT22;40108;53.152;5.844;2023-03-14T13:01:47;8.90;55.40
54202;DHT22;40108;53.152;5.844;2023-03-14T13:04:13;8.70;57.00
54202;DHT22;40108;53.152;5.844;2023-03-14T13:06:54;8.60;54.20
54202;DHT22;40108;53.152;5.844;2023-03-14T13:12:03;8.40;56.80
54202;DHT22;40108;53.152;5.844;2023-03-14T13:14:35;8.30;54.80
54202;DHT22;40108;53.152;5.844;2023-03-14T13:17:01;8.20;55.20
54202;DHT22;40108;53.152;5.844;2023-03-14T13:19:30;8.10;55.70
54202;DHT22;40108;53.152;5.844;2023-03-14T13:22:05;7.90;54.70
54202;DHT22;40108;53.152;5.844;2023-03-14T13:24:34;7.70;56.00
54202;DHT22;40108;53.152;5.844;2023-03-14T13:27:00;7.70;58.50
54202;DHT22;40108;53.152;5.844;2023-03-14T13:29:32;7.80;58.40
54202;DHT22;40108;53.152;5.844;2023-03-14T13:32:01;7.80;58.00
54202;DHT22;40108;53.152;5.844;2023-03-14T13:34:32;7.80;57.80
54202;DHT22;40108;53.152;5.844;2023-03-14T13:36:59;7.90;58.10
54202;DHT22;40108;53.152;5.844;2023-03-14T13:39:26;7.80;57.60
54202;DHT22;40108;53.152;5.844;2023-03-14T13:41:58;7.70;58.60
54202;DHT22;40108;53.152;5.844;2023-03-14T13:44:26;7.60;57.20
54202;DHT22;40108;53.152;5.844;2023-03-14T13:46:52;7.50;57.30
54202;DHT22;40108;53.152;5.844;2023-03-14T13:49:24;7.50;58.40
54202;DHT22;40108;53.152;5.844;2023-03-14T13:51:51;7.60;59.80
54202;DHT22;40108;53.152;5.844;2023-03-14T13:54:19;7.70;58.80
54202;DHT22;40108;53.152;5.844;2023-03-14T13:56:46;7.70;57.10
54202;DHT22;40108;53.152;5.844;2023-03-14T13:59:26;7.60;57.30
54202;DHT22;40108;53.152;5.844;2023-03-14T14:01:54;7.40;57.60
54202;DHT22;40108;53.152;5.844;2023-03-14T14:04:22;7.30;56.50
54202;DHT22;40108;53.152;5.844;2023-03-14T14:06:54;7.30;55.80
54202;DHT22;40108;53.152;5.844;2023-03-14T14:12:12;7.20;57.90
54202;DHT22;40108;53.152;5.844;2023-03-14T14:17:11;7.30;60.60
54202;DHT22;40108;53.152;5.844;2023-03-14T14:19:39;7.30;59.40
54202;DHT22;40108;53.152;5.844;2023-03-14T14:22:05;7.30;58.30
54202;DHT22;40108;53.152;5.844;2023-03-14T14:24:34;7.30;57.90
54202;DHT22;40108;53.152;5.844;2023-03-14T14:27:18;7.20;58.10
54202;DHT22;40108;53.152;5.844;2023-03-14T14:29:44;7.20;59.90
54202;DHT22;40108;53.152;5.844;2023-03-14T14:32:21;7.20;60.90
54202;DHT22;40108;53.152;5.844;2023-03-14T14:34:59;7.20;61.20
54202;DHT22;40108;53.152;5.844;2023-03-14T14:37:29;7.20;62.80
54202;DHT22;40108;53.152;5.844;2023-03-14T14:39:58;7.20;65.00
54202;DHT22;40108;53.152;5.844;2023-03-14T14:42:30;7.20;65.10
54202;DHT22;40108;53.152;5.844;2023-03-14T14:44:57;7.10;65.50
54202;DHT22;40108;53.152;5.844;2023-03-14T14:47:26;7.00;64.50
54202;DHT22;40108;53.152;5.844;2023-03-14T14:49:53;6.90;63.50
54202;DHT22;40108;53.152;5.844;2023-03-14T14:52:30;6.90;62.70
54202;DHT22;40108;53.152;5.844;2023-03-14T14:55:00;6.80;62.90
54202;DHT22;40108;53.152;5.844;2023-03-14T14:57:37;6.80;63.60
54202;DHT22;40108;53.152;5.844;2023-03-14T15:00:18;6.60;62.40
54202;DHT22;40108;53.152;5.844;2023-03-14T15:02:49;6.50;62.30
54202;DHT22;40108;53.152;5.844;2023-03-14T15:05:20;6.40;63.00
54202;DHT22;40108;53.152;5.844;2023-03-14T15:07:46;6.30;63.80
54202;DHT22;40108;53.152;5.844;2023-03-14T15:10:18;6.50;64.40
54202;DHT22;40108;53.152;5.844;2023-03-14T15:12:44;6.40;62.80
54202;DHT22;40108;53.152;5.844;2023-03-14T15:15:11;6.40;62.30
54202;DHT22;40108;53.152;5.844;2023-03-14T15:17:38;6.30;61.30
54202;DHT22;40108;53.152;5.844;2023-03-14T15:20:05;6.20;61.50
54202;DHT22;40108;53.152;5.844;2023-03-14T15:22:31;6.20;62.70
54202;DHT22;40108;53.152;5.844;2023-03-14T15:24:57;6.10;65.40
54202;DHT22;40108;53.152;5.844;2023-03-14T15:27:23;5.90;70.50
54202;DHT22;40108;53.152;5.844;2023-03-14T15:29:48;5.50;72.60
54202;DHT22;40108;53.152;5.844;2023-03-14T15:32:15;5.20;74.50
54202;DHT22;40108;53.152;5.844;2023-03-14T15:34:42;4.90;75.90
54202;DHT22;40108;53.152;5.844;2023-03-14T15:37:15;4.80;76.80
54202;DHT22;40108;53.152;5.844;2023-03-14T15:39:42;4.90;77.80
54202;DHT22;40108;53.152;5.844;2023-03-14T15:42:08;4.90;78.30
54202;DHT22;40108;53.152;5.844;2023-03-14T15:44:34;4.80;78.80
54202;DHT22;40108;53.152;5.844;2023-03-14T15:47:00;4.90;78.50
54202;DHT22;40108;53.152;5.844;2023-03-14T15:49:27;4.90;78.20
54202;DHT22;40108;53.152;5.844;2023-03-14T15:51:52;5.00;78.50
54202;DHT22;40108;53.152;5.844;2023-03-14T15:54:18;5.00;77.70
54202;DHT22;40108;53.152;5.844;2023-03-14T15:56:44;5.20;76.70
54202;DHT22;40108;53.152;5.844;2023-03-14T15:59:10;5.20;75.10
54202;DHT22;40108;53.152;5.844;2023-03-14T16:01:36;5.40;74.10
54202;DHT22;40108;53.152;5.844;2023-03-14T16:04:01;5.40;72.80
54202;DHT22;40108;53.152;5.844;2023-03-14T16:06:28;5.40;72.60
54202;DHT22;40108;53.152;5.844;2023-03-14T16:08:54;5.50;71.20
54202;DHT22;40108;53.152;5.844;2023-03-14T16:11:19;5.40;68.90
54202;DHT22;40108;53.152;5.844;2023-03-14T16:13:45;5.40;68.50
54202;DHT22;40108;53.152;5.844;2023-03-14T16:16:12;5.40;68.30
54202;DHT22;40108;53.152;5.844;2023-03-14T16:18:38;5.30;68.50
54202;DHT22;40108;53.152;5.844;2023-03-14T16:21:11;5.30;68.80
54202;DHT22;40108;53.152;5.844;2023-03-14T16:23:37;5.20;69.50
54202;DHT22;40108;53.152;5.844;2023-03-14T16:26:08;5.20;69.60
54202;DHT22;40108;53.152;5.844;2023-03-14T16:28:35;5.20;69.90
54202;DHT22;40108;53.152;5.844;2023-03-14T16:31:02;5.20;70.50
54202;DHT22;40108;53.152;5.844;2023-03-14T16:33:29;5.20;70.80
54202;DHT22;40108;53.152;5.844;2023-03-14T16:35:59;5.20;70.60
54202;DHT22;40108;53.152;5.844;2023-03-14T16:38:33;5.20;70.50
54202;DHT22;40108;53.152;5.844;2023-03-14T16:41:19;5.10;69.40
54202;DHT22;40108;53.152;5.844;2023-03-14T16:43:45;5.10;69.00
54202;DHT22;40108;53.152;5.844;2023-03-14T16:46:16;5.10;69.20
54202;DHT22;40108;53.152;5.844;2023-03-14T16:48:43;5.10;69.10
54202;DHT22;40108;53.152;5.844;2023-03-14T16:51:09;5.10;69.60
54202;DHT22;40108;53.152;5.844;2023-03-14T16:53:35;5.00;69.60
54202;DHT22;40108;53.152;5.844;2023-03-14T16:56:01;5.00;69.90
54202;DHT22;40108;53.152;5.844;2023-03-14T16:58:27;5.00;70.60